Terminal Aerodrome Forecast
Issued by NWS Topeka, KS

Home | Current Version | Previous Version | Text Only | Print | Product List | Glossary On
Versions: 1 2 3 4 5 6 7 8 9 10 11 12 13 14 15 16 17 18 19
000
FTUS43 KTOP 271700
TAFTOP
TAF
KTOP 271735Z 2718/2818 09010KT P6SM SKC
     FM280200 15010KT P6SM VCTS SCT040CB BKN080
     FM280900 15008KT P6SM SCT250=

USA.gov is the U.S. government's official web portal to all federal, state and local government web resources and services.